Time;durP1;ratioP1;P1;durP2;ratioP2;P2;SDS_P1;SDS_P2;PMS_P1;PMS_P2;Temp;Humidity;BMP_temperature;BMP_pressure;BME280_temperature;BME280_humidity;BME280_pressure;Samples;Min_cycle;Max_cycle;Signal;HPM_P1;HPM_P2
2023/04/26 00:02:20;;;;;;;0.50;0.50;;;;;;;24.09;34.31;99076.20;1884989;75;28150;-51
2023/04/26 00:05:09;;;;;;;0.60;0.60;;;;;;;24.10;34.30;99088.01;1879771;75;28216;-50
2023/04/26 00:07:58;;;;;;;0.70;0.70;;;;;;;24.07;34.33;99090.71;1895801;75;28092;-54
2023/04/26 00:10:46;;;;;;;0.50;0.50;;;;;;;24.10;34.30;99092.13;1892198;75;28211;-55
2023/04/26 00:13:37;;;;;;;0.42;0.42;;;;;;;24.09;34.33;99094.03;1895946;74;28092;-52
2023/04/26 00:16:25;;;;;;;0.57;0.53;;;;;;;24.11;34.31;99100.66;1889088;75;37139;-51
2023/04/26 00:19:14;;;;;;;0.50;0.50;;;;;;;24.08;34.34;99095.13;1882562;75;28104;-51
2023/04/26 00:22:04;;;;;;;1.20;0.40;;;;;;;24.11;34.33;99104.20;1889648;75;28064;-54
2023/04/26 00:24:52;;;;;;;0.60;0.60;;;;;;;24.09;34.33;99105.00;1871398;75;28386;-57
2023/04/26 00:27:40;;;;;;;0.50;0.50;;;;;;;24.11;34.33;99107.52;1887761;75;28048;-51
2023/04/26 00:30:29;;;;;;;0.50;0.50;;;;;;;24.09;34.38;99111.86;1881444;75;28130;-53
2023/04/26 00:33:17;;;;;;;0.55;0.55;;;;;;;24.09;34.34;99109.13;1889644;75;28091;-52
2023/04/26 00:36:06;;;;;;;0.60;0.60;;;;;;;24.11;34.33;99112.44;1888945;75;28115;-53
2023/04/26 00:38:54;;;;;;;0.60;0.60;;;;;;;24.11;34.32;99105.58;1884444;75;28159;-53
2023/04/26 00:41:43;;;;;;;0.55;0.55;;;;;;;24.11;34.33;99106.14;1878097;75;28130;-52
2023/04/26 00:44:31;;;;;;;0.42;0.42;;;;;;;24.10;34.31;99112.17;1885338;75;28171;-54
2023/04/26 00:47:20;;;;;;;0.60;0.60;;;;;;;24.11;34.37;99108.32;1890482;75;28131;-53
2023/04/26 00:50:10;;;;;;;0.45;0.45;;;;;;;24.11;34.33;99115.18;1884155;75;28158;-56
2023/04/26 00:53:00;;;;;;;0.65;0.65;;;;;;;24.11;34.35;99117.92;1880628;75;28068;-56
2023/04/26 00:55:50;;;;;;;1.40;0.40;;;;;;;24.11;34.37;99122.04;1879924;75;31036;-56
2023/04/26 00:58:39;;;;;;;0.68;0.68;;;;;;;24.10;34.36;99131.91;1886268;75;28079;-54
2023/04/26 01:01:28;;;;;;;0.70;0.62;;;;;;;24.11;34.35;99133.02;1874083;75;28091;-50
2023/04/26 01:04:17;;;;;;;0.50;0.50;;;;;;;24.11;34.37;99133.02;1892503;75;28112;-54
2023/04/26 01:07:06;;;;;;;0.50;0.50;;;;;;;24.12;34.39;99133.86;1881509;75;28222;-54
2023/04/26 01:09:56;;;;;;;0.60;0.60;;;;;;;24.12;34.33;99132.48;1887561;75;28091;-53
2023/04/26 01:12:44;;;;;;;0.70;0.70;;;;;;;24.11;34.39;99139.87;1873883;75;28165;-53
2023/04/26 01:15:34;;;;;;;0.50;0.50;;;;;;;24.12;34.34;99138.81;1893708;75;28068;-54
2023/04/26 01:18:23;;;;;;;0.60;0.60;;;;;;;24.13;34.34;99139.65;1890864;75;28157;-54
2023/04/26 01:21:12;;;;;;;0.57;0.57;;;;;;;24.11;34.35;99135.77;1878574;75;35297;-54
2023/04/26 01:24:01;;;;;;;0.45;0.45;;;;;;;24.12;34.37;99140.19;1870224;75;28064;-51
2023/04/26 01:26:51;;;;;;;0.50;0.50;;;;;;;24.12;34.33;99137.97;1878022;75;28118;-54
2023/04/26 01:29:41;;;;;;;0.50;0.50;;;;;;;24.14;34.33;99144.03;1880259;74;28133;-53
2023/04/26 01:32:30;;;;;;;0.57;0.57;;;;;;;24.11;34.34;99146.73;1884353;74;28101;-55
2023/04/26 01:35:20;;;;;;;0.60;0.60;;;;;;;24.12;34.34;99148.41;1879940;75;28053;-55
2023/04/26 01:38:08;;;;;;;0.50;0.50;;;;;;;24.11;34.37;99146.73;1886098;75;38409;-55
2023/04/26 01:40:57;;;;;;;0.50;0.50;;;;;;;24.10;34.38;99151.95;1867415;75;28134;-54
2023/04/26 01:43:45;;;;;;;0.60;0.60;;;;;;;24.12;34.37;99147.58;1890625;75;28121;-58
2023/04/26 01:46:33;;;;;;;0.50;0.50;;;;;;;24.10;34.34;99140.14;1890406;75;28047;-54
2023/04/26 01:49:21;;;;;;;0.60;0.60;;;;;;;24.12;34.38;99136.59;1884397;75;28056;-55
2023/04/26 01:52:10;;;;;;;0.40;0.40;;;;;;;24.09;34.40;99140.68;1901249;75;28150;-55
2023/04/26 01:54:58;;;;;;;0.50;0.50;;;;;;;24.11;34.39;99134.39;1883116;75;28063;-55
2023/04/26 01:57:47;;;;;;;0.50;0.50;;;;;;;24.13;34.37;99134.16;1889749;75;28099;-50
2023/04/26 02:00:37;;;;;;;0.40;0.40;;;;;;;24.12;34.33;99136.59;1897216;75;28429;-56
2023/04/26 02:03:25;;;;;;;0.60;0.60;;;;;;;24.09;34.38;99140.68;1874589;75;28060;-52
2023/04/26 02:06:13;;;;;;;0.60;0.60;;;;;;;24.08;34.42;99141.78;1890518;75;28072;-51
2023/04/26 02:09:02;;;;;;;0.50;0.50;;;;;;;24.09;34.39;99142.05;1898669;75;28162;-52
2023/04/26 02:11:51;;;;;;;0.50;0.50;;;;;;;24.09;34.41;99137.94;1880720;75;28117;-52
2023/04/26 02:14:39;;;;;;;0.50;0.50;;;;;;;24.11;34.37;99133.59;1898920;75;28064;-56
2023/04/26 02:17:30;;;;;;;0.30;0.30;;;;;;;24.10;34.39;99137.40;1901153;75;28142;-51
2023/04/26 02:20:19;;;;;;;0.87;0.50;;;;;;;24.10;34.41;99144.26;1897518;75;28097;-54
2023/04/26 02:23:08;;;;;;;0.43;0.43;;;;;;;24.07;34.47;99134.62;1869498;75;28144;-54
2023/04/26 02:25:56;;;;;;;0.47;0.47;;;;;;;24.08;34.43;99125.31;1895105;75;28525;-53
2023/04/26 02:28:44;;;;;;;0.50;0.50;;;;;;;24.04;34.48;99129.05;1890258;75;28139;-50
2023/04/26 02:31:34;;;;;;;0.47;0.47;;;;;;;24.07;34.44;99127.76;1893260;75;28188;-49
2023/04/26 02:34:23;;;;;;;0.50;0.50;;;;;;;24.09;34.39;99130.23;1896663;75;28102;-51
2023/04/26 02:37:11;;;;;;;0.40;0.40;;;;;;;24.12;34.33;99129.20;1895781;75;28100;-52
2023/04/26 02:39:59;;;;;;;0.50;0.50;;;;;;;24.11;34.32;99127.53;1891804;75;28213;-53
2023/04/26 02:42:49;;;;;;;0.47;0.47;;;;;;;24.12;34.30;99130.58;1893614;75;28107;-52
2023/04/26 02:45:42;;;;;;;0.50;0.50;;;;;;;24.11;34.33;99133.02;1894633;75;28111;-51
2023/04/26 02:48:32;;;;;;;0.50;0.50;;;;;;;24.07;34.34;99130.50;1883525;75;28173;-51
2023/04/26 02:51:20;;;;;;;0.57;0.57;;;;;;;24.07;34.35;99121.44;1893788;75;28220;-50
2023/04/26 02:54:09;;;;;;;0.50;0.50;;;;;;;24.06;34.41;99124.74;1876818;75;28023;-54
2023/04/26 02:56:57;;;;;;;0.40;0.40;;;;;;;24.06;34.34;99119.25;1887083;75;28259;-54
2023/04/26 02:59:46;;;;;;;0.47;0.47;;;;;;;24.06;34.35;99112.39;1882008;75;28065;-48
2023/04/26 03:02:35;;;;;;;0.40;0.40;;;;;;;24.03;34.38;99111.48;1901426;75;28674;-54
2023/04/26 03:05:24;;;;;;;0.68;0.68;;;;;;;24.03;34.38;99112.33;1893517;75;28072;-54
2023/04/26 03:08:14;;;;;;;0.40;0.40;;;;;;;24.04;34.39;99106.27;1894751;75;28285;-51
2023/04/26 03:11:03;;;;;;;0.50;0.50;;;;;;;24.04;34.40;99103.52;1868892;76;28126;-53
2023/04/26 03:13:52;;;;;;;0.60;0.60;;;;;;;24.04;34.38;99113.12;1876747;75;28044;-54
2023/04/26 03:16:44;;;;;;;2.80;0.60;;;;;;;24.02;34.39;99116.67;1893534;75;28119;-53
2023/04/26 03:19:33;;;;;;;0.50;0.50;;;;;;;24.03;34.38;99116.44;1895059;75;28085;-53
2023/04/26 03:22:23;;;;;;;0.50;0.50;;;;;;;24.01;34.39;99113.09;1868811;76;28087;-50
2023/04/26 03:25:12;;;;;;;0.70;0.70;;;;;;;24.01;34.42;99110.91;1876039;75;28122;-52
2023/04/26 03:28:00;;;;;;;0.53;0.53;;;;;;;24.02;34.43;99116.67;1877566;75;28341;-51
2023/04/26 03:30:52;;;;;;;0.50;0.50;;;;;;;24.00;34.40;99116.09;1868163;76;28048;-55
2023/04/26 03:33:40;;;;;;;0.50;0.50;;;;;;;24.00;34.42;99121.59;1868989;76;28166;-54
2023/04/26 03:36:29;;;;;;;0.60;0.60;;;;;;;23.99;34.48;99118.58;1895042;75;28047;-53
2023/04/26 03:39:18;;;;;;;0.50;0.50;;;;;;;23.97;34.44;99116.59;1897959;75;32971;-51
2023/04/26 03:42:07;;;;;;;0.68;0.60;;;;;;;23.99;34.43;99111.71;1895766;75;28187;-51
2023/04/26 03:44:55;;;;;;;0.60;0.60;;;;;;;23.98;34.48;99111.41;1869127;76;28122;-52
2023/04/26 03:47:44;;;;;;;0.50;0.50;;;;;;;23.98;34.39;99114.16;1888502;75;28063;-51
2023/04/26 03:50:32;;;;;;;0.60;0.60;;;;;;;23.97;34.27;99116.06;1893945;75;28161;-54
2023/04/26 03:53:21;;;;;;;0.60;0.60;;;;;;;23.97;34.18;99113.31;1869018;76;28158;-53
2023/04/26 03:56:09;;;;;;;0.53;0.53;;;;;;;23.99;34.15;99115.83;1892292;75;28064;-53
2023/04/26 03:58:58;;;;;;;0.53;0.53;;;;;;;23.93;34.10;99114.08;1893601;75;28099;-51
2023/04/26 04:01:47;;;;;;;0.72;0.70;;;;;;;23.93;34.10;99114.08;1901385;75;28026;-53
2023/04/26 04:04:36;;;;;;;0.65;0.50;;;;;;;23.98;34.06;99118.27;1887872;75;28089;-51
2023/04/26 04:07:24;;;;;;;0.60;0.60;;;;;;;23.98;34.03;99111.41;1877260;75;28169;-49
2023/04/26 04:10:15;;;;;;;0.75;0.70;;;;;;;23.96;34.05;99111.67;1893626;75;28113;-52
2023/04/26 04:13:04;;;;;;;0.85;0.60;;;;;;;23.95;34.04;99118.77;1901588;75;28107;-54
2023/04/26 04:15:53;;;;;;;0.30;0.30;;;;;;;23.93;34.07;99122.31;1869075;76;28107;-52
2023/04/26 04:18:41;;;;;;;0.57;0.57;;;;;;;23.93;34.09;99123.14;1873385;75;28060;-54
2023/04/26 04:21:31;;;;;;;3.10;0.80;;;;;;;23.91;34.10;99122.57;1897062;75;28048;-53
2023/04/26 04:24:20;;;;;;;8.58;1.80;;;;;;;23.91;34.08;99125.31;1886366;75;28226;-53
2023/04/26 04:27:08;;;;;;;0.73;0.73;;;;;;;23.91;34.10;99125.84;1869074;76;28156;-53
2023/04/26 04:29:56;;;;;;;1.65;0.78;;;;;;;23.92;34.07;99130.27;1886611;75;28079;-53
2023/04/26 04:32:45;;;;;;;0.78;0.78;;;;;;;23.91;34.06;99142.31;1889920;75;28146;-53
2023/04/26 04:35:35;;;;;;;0.42;0.42;;;;;;;23.91;34.04;99142.31;1895920;75;28620;-53
2023/04/26 04:38:25;;;;;;;0.60;0.60;;;;;;;23.90;34.03;99142.00;1869325;75;28041;-53
2023/04/26 04:41:15;;;;;;;0.62;0.62;;;;;;;23.90;34.22;99144.75;1894034;75;28081;-51
2023/04/26 04:44:04;;;;;;;0.60;0.60;;;;;;;23.90;34.24;99144.21;1897963;75;28072;-51
2023/04/26 04:46:53;;;;;;;2.20;0.68;;;;;;;23.92;34.25;99148.09;1901859;75;28110;-53
2023/04/26 04:49:42;;;;;;;0.63;0.63;;;;;;;23.91;34.29;99151.91;1879757;75;28074;-53
2023/04/26 04:52:32;;;;;;;0.55;0.55;;;;;;;23.90;34.33;99154.34;1879550;75;28728;-52
2023/04/26 04:55:20;;;;;;;0.60;0.60;;;;;;;23.90;34.38;99155.72;1901326;75;28129;-51
2023/04/26 04:58:09;;;;;;;0.88;0.70;;;;;;;23.86;34.42;99153.20;1869037;76;28084;-54
2023/04/26 05:01:00;;;;;;;0.80;0.80;;;;;;;23.88;34.46;99161.47;1891818;75;28084;-53
2023/04/26 05:03:49;;;;;;;0.67;0.67;;;;;;;23.87;34.45;99168.05;1901299;75;28146;-52
2023/04/26 05:06:38;;;;;;;0.55;0.55;;;;;;;23.87;34.47;99172.70;1882170;75;28285;-54
2023/04/26 05:09:27;;;;;;;0.50;0.50;;;;;;;23.87;34.47;99168.59;1869209;76;28688;-55
2023/04/26 05:12:15;;;;;;;0.60;0.60;;;;;;;23.85;34.47;99174.30;1874083;75;28169;-52
2023/04/26 05:15:04;;;;;;;0.42;0.42;;;;;;;23.87;34.45;99183.67;1896954;75;28095;-52
2023/04/26 05:17:54;;;;;;;0.70;0.60;;;;;;;23.87;34.47;99180.94;1887252;75;28067;-52
2023/04/26 05:20:44;;;;;;;0.70;0.70;;;;;;;23.86;34.48;99187.48;1868943;76;28095;-50
2023/04/26 05:23:33;;;;;;;0.60;0.60;;;;;;;23.85;34.51;99188.59;1876801;75;28063;-52
2023/04/26 05:26:21;;;;;;;0.57;0.57;;;;;;;23.84;34.50;99191.86;1877190;75;28316;-52
2023/04/26 05:29:15;;;;;;;1.00;0.65;;;;;;;23.84;34.53;99195.14;1884861;75;28168;-50
2023/04/26 05:32:14;;;;;;;0.60;0.50;;;;;;;23.84;34.51;99205.58;1895728;75;28140;-52
2023/04/26 05:35:08;;;;;;;0.72;0.60;;;;;;;23.83;34.52;99201.69;1868994;76;28068;-48
2023/04/26 05:37:57;;;;;;;2.10;0.70;;;;;;;23.79;34.53;99202.75;1874048;75;28088;-52
2023/04/26 05:40:47;;;;;;;0.68;0.68;;;;;;;23.77;34.59;99200.80;1901612;75;28150;-53
2023/04/26 05:43:35;;;;;;;0.68;0.68;;;;;;;23.81;34.58;99203.33;1888130;75;28113;-50
2023/04/26 05:46:24;;;;;;;0.50;0.50;;;;;;;23.82;34.58;99220.09;1896733;75;28159;-55
2023/04/26 05:49:12;;;;;;;0.72;0.60;;;;;;;23.75;34.24;99215.30;1888553;75;28162;-52
2023/04/26 05:52:02;;;;;;;1.80;0.72;;;;;;;23.72;34.04;99213.05;1892538;75;28140;-54
2023/04/26 05:54:51;;;;;;;1.17;0.78;;;;;;;23.73;33.84;99207.03;1856935;77;28140;-53
2023/04/26 05:57:40;;;;;;;0.55;0.55;;;;;;;23.77;34.01;99210.93;1881805;75;28189;-52
2023/04/26 06:00:28;;;;;;;0.95;0.78;;;;;;;23.76;34.25;99207.88;1868209;75;28151;-54
2023/04/26 06:03:18;;;;;;;0.70;0.30;;;;;;;23.77;34.33;99200.80;1883610;75;28204;-57
2023/04/26 06:06:06;;;;;;;0.30;0.30;;;;;;;23.77;34.36;99201.33;1856842;77;28096;-52
2023/04/26 06:08:55;;;;;;;0.57;0.57;;;;;;;23.78;34.36;99208.49;1888997;75;28173;-54
2023/04/26 06:11:45;;;;;;;0.80;0.80;;;;;;;23.80;34.33;99213.19;1888514;75;28121;-55
2023/04/26 06:14:34;;;;;;;0.57;0.57;;;;;;;23.78;34.32;99213.41;1886640;75;28073;-55
2023/04/26 06:17:24;;;;;;;0.50;0.50;;;;;;;23.78;34.33;99214.78;1884180;75;28056;-54
2023/04/26 06:20:13;;;;;;;0.80;0.80;;;;;;;23.80;34.44;99218.67;1868007;75;28194;-55
2023/04/26 06:23:01;;;;;;;0.80;0.80;;;;;;;23.81;34.43;99212.92;1895453;75;28068;-54
2023/04/26 06:25:50;;;;;;;0.85;0.62;;;;;;;23.76;34.52;99218.85;1886011;75;28127;-50
2023/04/26 06:28:39;;;;;;;0.60;0.60;;;;;;;23.76;34.65;99217.48;1880716;75;28251;-53
2023/04/26 06:31:28;;;;;;;2.00;0.40;;;;;;;23.75;34.86;99209.82;1895866;75;32921;-55
2023/04/26 06:34:18;;;;;;;0.90;0.90;;;;;;;23.73;35.27;99213.36;1876118;75;28118;-53
2023/04/26 06:37:06;;;;;;;1.35;1.00;;;;;;;23.77;35.20;99218.63;1882265;75;28133;-53
2023/04/26 06:39:55;;;;;;;2.20;1.02;;;;;;;23.69;33.49;99216.81;1884017;75;28109;-51
2023/04/26 06:42:44;;;;;;;1.12;1.00;;;;;;;23.40;30.65;99217.95;1884620;75;28091;-51
2023/04/26 06:45:53;;;;;;;1.42;1.00;;;;;;;23.20;30.52;99207.41;1885691;75;28114;-54
2023/04/26 06:48:41;;;;;;;0.93;0.93;;;;;;;23.16;30.91;99211.19;1888824;75;28084;-51
2023/04/26 06:51:30;;;;;;;1.10;0.90;;;;;;;23.18;31.21;99203.55;1886989;75;28134;-52
2023/04/26 06:54:19;;;;;;;1.07;0.98;;;;;;;23.28;31.29;99207.02;1886875;75;28193;-50
2023/04/26 06:57:08;;;;;;;1.70;1.10;;;;;;;23.32;31.44;99215.03;1887663;75;28112;-49
2023/04/26 06:59:57;;;;;;;0.90;0.90;;;;;;;23.33;31.68;99213.44;1876317;75;28159;-52
2023/04/26 07:02:45;;;;;;;0.80;0.80;;;;;;;23.40;31.84;99211.10;1894239;75;28279;-51
2023/04/26 07:05:33;;;;;;;0.80;0.80;;;;;;;23.45;31.93;99205.72;1872043;76;28237;-48
2023/04/26 07:08:22;;;;;;;0.80;0.80;;;;;;;23.45;32.04;99200.23;1878330;76;28136;-49
2023/04/26 07:11:12;;;;;;;0.70;0.70;;;;;;;23.47;32.17;99197.54;1874973;76;28130;-48
2023/04/26 07:14:00;;;;;;;1.55;1.00;;;;;;;23.49;32.12;99198.12;1878668;76;28068;-52
2023/04/26 07:16:49;;;;;;;0.82;0.82;;;;;;;23.49;32.21;99195.38;1881074;75;28169;-53
2023/04/26 07:19:37;;;;;;;0.80;0.80;;;;;;;23.51;32.28;99195.12;1889708;75;28196;-49
2023/04/26 07:22:26;;;;;;;0.93;0.70;;;;;;;23.52;32.38;99194.05;1872727;76;28141;-51
2023/04/26 07:25:14;;;;;;;1.30;0.90;;;;;;;23.49;32.47;99189.05;1876850;76;36923;-51
2023/04/26 07:28:02;;;;;;;2.20;1.00;;;;;;;23.53;32.49;99189.69;1894743;75;28136;-50
2023/04/26 07:30:51;;;;;;;1.00;0.90;;;;;;;23.54;32.53;99187.24;1892409;75;30126;-48
2023/04/26 07:33:40;;;;;;;0.70;0.70;;;;;;;23.55;32.59;99182.03;1883503;75;28671;-47
2023/04/26 07:36:28;;;;;;;0.80;0.80;;;;;;;23.55;32.63;99182.03;1887176;75;28624;-49
2023/04/26 07:39:16;;;;;;;0.90;0.90;;;;;;;23.58;32.63;99178.80;1884332;75;28082;-54
2023/04/26 07:42:06;;;;;;;0.78;0.78;;;;;;;23.60;32.66;99179.92;1875238;76;28231;-51
2023/04/26 07:44:54;;;;;;;0.80;0.80;;;;;;;23.59;32.71;99179.11;1885875;75;28200;-49
2023/04/26 07:47:43;;;;;;;0.73;0.73;;;;;;;23.59;32.76;99181.85;1879871;75;28067;-51
2023/04/26 07:50:32;;;;;;;0.80;0.80;;;;;;;23.60;32.77;99178.55;1881980;75;28283;-51
2023/04/26 07:53:20;;;;;;;0.70;0.70;;;;;;;23.59;32.82;99168.14;1869402;76;28209;-53
2023/04/26 07:56:09;;;;;;;1.50;0.80;;;;;;;23.59;32.88;99170.88;1869425;76;28114;-51
2023/04/26 07:58:57;;;;;;;0.68;0.68;;;;;;;23.62;32.89;99166.81;1884986;75;28137;-49
2023/04/26 08:01:45;;;;;;;1.05;0.78;;;;;;;23.62;32.93;99169.56;1881627;75;28246;-53
2023/04/26 08:04:35;;;;;;;1.10;0.82;;;;;;;23.63;32.94;99169.30;1880409;75;28184;-50
2023/04/26 08:07:23;;;;;;;1.60;0.68;;;;;;;23.65;32.97;99170.41;1873261;75;28187;-48
2023/04/26 08:10:12;;;;;;;0.78;0.78;;;;;;;23.63;32.98;99168.46;1869120;76;28184;-50
2023/04/26 08:13:02;;;;;;;0.55;0.55;;;;;;;23.64;33.02;99167.39;1886244;75;28107;-53
2023/04/26 08:15:50;;;;;;;0.60;0.60;;;;;;;23.63;33.07;99162.98;1869367;76;28132;-50
2023/04/26 08:18:39;;;;;;;0.78;0.78;;;;;;;23.63;33.08;99169.30;1869090;76;28165;-53
2023/04/26 08:21:27;;;;;;;0.72;0.72;;;;;;;23.61;33.13;99167.88;1890884;75;28115;-54
2023/04/26 08:24:15;;;;;;;0.70;0.70;;;;;;;23.64;33.16;99172.88;1895849;75;28044;-49
2023/04/26 08:27:05;;;;;;;0.82;0.82;;;;;;;23.64;33.20;99167.39;1891151;75;28265;-53
2023/04/26 08:29:53;;;;;;;0.72;0.72;;;;;;;23.63;33.20;99170.67;1867911;76;28180;-49
2023/04/26 08:32:41;;;;;;;1.55;0.80;;;;;;;23.63;33.26;99173.94;1869057;76;28060;-49
2023/04/26 08:35:30;;;;;;;0.60;0.60;;;;;;;23.64;33.30;99175.63;1884199;75;28150;-52
2023/04/26 08:38:21;;;;;;;0.80;0.80;;;;;;;23.64;33.28;99172.31;1898229;75;28126;-49
2023/04/26 08:41:11;;;;;;;0.68;0.60;;;;;;;23.65;33.31;99175.89;1895714;75;28481;-51
2023/04/26 08:44:04;;;;;;;0.60;0.60;;;;;;;23.64;33.36;99183.84;1889483;75;28308;-48
2023/04/26 08:47:18;;;;;;;0.98;0.93;;;;;;;23.63;33.39;99180.80;1860249;76;28183;-52
2023/04/26 08:50:08;;;;;;;0.80;0.80;;;;;;;23.64;33.39;99180.54;1868742;76;28205;-49
2023/04/26 08:52:57;;;;;;;0.80;0.80;;;;;;;23.63;33.45;99176.69;1875415;75;28222;-53
2023/04/26 08:55:52;;;;;;;0.80;0.70;;;;;;;23.62;33.47;99183.27;1886336;75;28114;-48
2023/04/26 08:58:41;;;;;;;0.70;0.70;;;;;;;23.64;33.45;99178.36;1896479;75;28129;-50
2023/04/26 09:01:31;;;;;;;0.60;0.60;;;;;;;23.64;33.46;99178.36;1856898;77;28150;-52
2023/04/26 09:04:19;;;;;;;0.80;0.80;;;;;;;23.65;33.51;99170.41;1868811;76;28133;-48
2023/04/26 09:07:10;;;;;;;1.70;0.85;;;;;;;23.65;33.47;99171.78;1859748;76;28069;-48
2023/04/26 09:09:59;;;;;;;0.62;0.62;;;;;;;23.65;33.52;99175.89;1896358;75;28134;-50
2023/04/26 09:12:51;;;;;;;0.50;0.50;;;;;;;23.66;33.51;99173.45;1886988;75;28119;-49
2023/04/26 09:15:40;;;;;;;0.60;0.60;;;;;;;23.66;33.53;99172.09;1896532;75;28129;-48
2023/04/26 09:18:30;;;;;;;1.30;0.80;;;;;;;23.65;33.57;99163.55;1882123;75;28167;-48
2023/04/26 09:21:19;;;;;;;0.57;0.57;;;;;;;23.67;33.55;99164.13;1869940;75;28701;-52
2023/04/26 09:24:07;;;;;;;0.80;0.70;;;;;;;23.67;33.56;99166.34;1868801;76;28147;-53
2023/04/26 09:27:02;;;;;;;0.85;0.85;;;;;;;23.66;33.56;99165.23;1865740;75;31107;-49
2023/04/26 09:30:12;;;;;;;0.83;0.70;;;;;;;23.65;33.57;99162.19;1901409;75;28122;-50
2023/04/26 09:33:03;;;;;;;0.65;0.65;;;;;;;23.67;33.59;99157.28;1875783;75;28155;-51
2023/04/26 09:35:52;;;;;;;0.77;0.77;;;;;;;23.65;33.62;99155.33;1883959;75;28146;-50
2023/04/26 09:38:43;;;;;;;1.20;0.60;;;;;;;23.64;33.64;99150.38;1868816;76;28124;-49
2023/04/26 09:41:45;;;;;;;0.60;0.60;;;;;;;23.65;33.62;99155.33;1868779;76;28193;-52
2023/04/26 09:44:35;;;;;;;0.70;0.70;;;;;;;23.65;33.68;99153.95;1878667;75;28259;-54
2023/04/26 09:47:23;;;;;;;0.60;0.60;;;;;;;23.64;33.67;99144.89;1867568;76;28189;-51
2023/04/26 09:50:12;;;;;;;1.50;0.90;;;;;;;23.62;33.72;99143.51;1884171;75;28099;-52
2023/04/26 09:53:01;;;;;;;0.93;0.80;;;;;;;23.63;33.73;99143.78;1898849;75;28196;-53
2023/04/26 09:55:50;;;;;;;0.70;0.70;;;;;;;23.65;33.71;99142.98;1893864;75;28087;-49
2023/04/26 09:58:41;;;;;;;1.00;0.65;;;;;;;23.64;33.69;99139.97;1895999;75;28177;-51
2023/04/26 10:01:30;;;;;;;0.50;0.50;;;;;;;23.64;33.71;99139.97;1865682;76;28127;-49
2023/04/26 10:04:18;;;;;;;0.60;0.60;;;;;;;23.65;33.69;99140.25;1890266;75;28052;-50
2023/04/26 10:07:07;;;;;;;0.60;0.60;;;;;;;23.66;33.71;99135.91;1888080;75;28115;-52
2023/04/26 10:09:58;;;;;;;0.65;0.60;;;;;;;23.65;33.72;99133.39;1880501;75;28155;-47
2023/04/26 10:12:47;;;;;;;0.78;0.78;;;;;;;23.67;33.71;99125.73;1868780;76;28061;-52
2023/04/26 10:15:36;;;;;;;0.50;0.50;;;;;;;23.65;33.73;99125.16;1877544;75;28103;-49
2023/04/26 10:18:25;;;;;;;0.60;0.60;;;;;;;23.65;33.73;99119.68;1895413;75;28067;-51
2023/04/26 10:21:25;;;;;;;0.70;0.70;;;;;;;23.65;33.75;99121.05;1881020;75;28059;-48
2023/04/26 10:24:13;;;;;;;0.50;0.50;;;;;;;23.66;33.72;99115.87;1885168;75;30021;-51
2023/04/26 10:27:03;;;;;;;1.77;0.60;;;;;;;23.62;33.79;99111.41;1894766;75;28131;-53
2023/04/26 10:30:00;;;;;;;0.68;0.68;;;;;;;23.64;33.79;99103.77;1878821;75;28025;-49
2023/04/26 10:33:00;;;;;;;0.62;0.62;;;;;;;23.67;33.76;99096.95;1895363;75;28181;-52
2023/04/26 10:36:07;;;;;;;0.60;0.60;;;;;;;23.65;33.79;99093.63;1882173;75;28245;-50
2023/04/26 10:39:15;;;;;;;0.70;0.70;;;;;;;23.64;33.83;99085.94;1886164;75;28138;-52
2023/04/26 10:42:26;;;;;;;0.40;0.40;;;;;;;23.64;33.84;99079.08;1868982;76;28054;-49
2023/04/26 10:45:29;;;;;;;0.70;0.70;;;;;;;23.62;33.86;99064.80;1879555;75;28089;-50
2023/04/26 10:48:22;;;;;;;0.50;0.50;;;;;;;23.62;33.90;99066.17;1862508;76;28085;-48
2023/04/26 10:51:11;;;;;;;0.90;0.60;;;;;;;23.62;33.88;99061.25;1880167;75;28541;-49
2023/04/26 10:54:01;;;;;;;0.62;0.62;;;;;;;23.62;33.87;99062.05;1895027;75;28067;-50
2023/04/26 10:56:51;;;;;;;0.57;0.57;;;;;;;23.66;33.86;99065.14;1885202;75;28048;-47
2023/04/26 10:59:39;;;;;;;0.60;0.60;;;;;;;23.67;33.83;99059.92;1868918;76;30098;-48
2023/04/26 11:03:05;;;;;;;0.55;0.55;;;;;;;23.66;33.86;99048.69;1868717;76;28136;-49
2023/04/26 11:05:54;;;;;;;0.70;0.70;;;;;;;23.68;33.82;99045.14;1863478;76;28077;-51
2023/04/26 11:08:42;;;;;;;0.57;0.57;;;;;;;23.62;33.89;99041.48;1896288;75;28193;-49
2023/04/26 11:11:31;;;;;;;0.50;0.50;;;;;;;23.63;33.91;99039.59;1885684;75;28145;-48
2023/04/26 11:14:21;;;;;;;0.60;0.60;;;;;;;23.65;33.89;99031.93;1868716;76;28060;-52
2023/04/26 11:17:10;;;;;;;0.60;0.60;;;;;;;23.67;33.89;99028.39;1878547;76;28222;-51
2023/04/26 11:20:00;;;;;;;0.40;0.40;;;;;;;23.68;33.87;99021.30;1894466;75;28482;-50
2023/04/26 11:22:48;;;;;;;1.00;0.80;;;;;;;23.68;33.83;99019.94;1875668;75;28149;-50
2023/04/26 11:25:41;;;;;;;0.50;0.50;;;;;;;23.70;33.84;99015.55;1868684;76;28064;-49
2023/04/26 11:28:31;;;;;;;0.40;0.40;;;;;;;23.68;33.82;99017.19;1864455;75;28063;-50
2023/04/26 11:31:20;;;;;;;0.50;0.50;;;;;;;23.71;33.82;99013.12;1895142;75;28088;-51
2023/04/26 11:34:08;;;;;;;0.70;0.70;;;;;;;23.69;33.80;99003.75;1885558;75;28124;-49
2023/04/26 11:36:56;;;;;;;0.50;0.50;;;;;;;23.71;33.84;99000.77;1868706;76;28151;-48
2023/04/26 11:39:45;;;;;;;0.50;0.50;;;;;;;23.71;33.78;99002.95;1891098;75;28163;-50
2023/04/26 11:42:34;;;;;;;0.68;0.68;;;;;;;23.71;33.87;98997.47;1883183;75;28126;-52
2023/04/26 11:45:22;;;;;;;0.53;0.53;;;;;;;23.72;33.84;98991.45;1886224;75;28108;-50
2023/04/26 11:48:12;;;;;;;0.70;0.70;;;;;;;23.72;33.84;98987.33;1895188;74;28123;-52
2023/04/26 11:51:03;;;;;;;0.50;0.50;;;;;;;23.71;33.87;98985.13;1883756;75;28158;-49
2023/04/26 11:53:51;;;;;;;0.57;0.57;;;;;;;23.73;33.81;98982.98;1884836;75;28591;-51
2023/04/26 11:56:40;;;;;;;0.47;0.47;;;;;;;23.75;33.83;98978.61;1886151;75;28170;-51
2023/04/26 11:59:30;;;;;;;0.50;0.50;;;;;;;23.73;33.81;98968.44;1884146;75;28077;-52
2023/04/26 12:02:20;;;;;;;0.35;0.35;;;;;;;23.71;33.85;98954.96;1885298;75;28169;-51
2023/04/26 12:05:09;;;;;;;0.60;0.60;;;;;;;23.72;33.83;98961.28;1868954;76;28061;-51
2023/04/26 12:07:59;;;;;;;1.87;0.60;;;;;;;23.73;33.85;98954.73;1871931;75;28108;-54
2023/04/26 12:10:48;;;;;;;0.60;0.60;;;;;;;23.74;33.81;98956.37;1879565;75;28084;-51
2023/04/26 12:13:39;;;;;;;0.57;0.57;;;;;;;23.73;33.82;98958.84;1883701;75;28097;-50
2023/04/26 12:16:27;;;;;;;0.60;0.60;;;;;;;23.74;33.81;98955.00;1884923;75;28190;-53
2023/04/26 12:19:16;;;;;;;0.60;0.60;;;;;;;23.73;33.83;98958.84;1883190;75;28076;-47
2023/04/26 12:22:05;;;;;;;0.60;0.60;;;;;;;23.72;33.81;98951.69;1867336;75;28209;-48
2023/04/26 12:24:57;;;;;;;0.57;0.57;;;;;;;23.73;33.81;98950.08;1894848;75;28096;-48
2023/04/26 12:27:45;;;;;;;0.60;0.60;;;;;;;23.75;33.77;98950.64;1897858;75;28067;-50
2023/04/26 12:30:34;;;;;;;0.80;0.60;;;;;;;23.76;33.77;98950.92;1856864;77;28095;-53
2023/04/26 12:33:25;;;;;;;0.50;0.50;;;;;;;23.76;33.75;98941.85;1862947;76;28065;-49
2023/04/26 12:36:14;;;;;;;0.55;0.40;;;;;;;23.76;33.76;98948.70;1896436;75;28125;-50
2023/04/26 12:39:04;;;;;;;0.50;0.50;;;;;;;23.77;33.68;98942.16;1856117;77;28270;-51
2023/04/26 12:41:52;;;;;;;0.57;0.57;;;;;;;23.76;33.72;98945.43;1868729;76;28223;-52
2023/04/26 12:44:40;;;;;;;0.62;0.62;;;;;;;23.76;33.71;98937.73;1856970;77;28222;-52
2023/04/26 12:47:30;;;;;;;0.90;0.60;;;;;;;23.75;33.70;98936.94;1857500;76;28064;-50
2023/04/26 12:50:19;;;;;;;0.40;0.40;;;;;;;23.73;33.68;98925.94;1895542;75;28072;-52
2023/04/26 12:53:09;;;;;;;0.50;0.50;;;;;;;23.78;33.67;98927.37;1868783;76;28096;-52
2023/04/26 12:55:58;;;;;;;0.60;0.60;;;;;;;23.77;33.69;98925.70;1890181;75;28383;-52
2023/04/26 12:58:46;;;;;;;0.50;0.45;;;;;;;23.77;33.70;98914.73;1894577;75;28056;-50
2023/04/26 13:01:35;;;;;;;0.67;0.67;;;;;;;23.78;33.70;98921.31;1900140;75;28125;-50
2023/04/26 13:04:24;;;;;;;0.60;0.50;;;;;;;23.78;33.68;98913.66;1868838;76;28185;-50
2023/04/26 13:07:13;;;;;;;1.15;0.47;;;;;;;23.77;33.68;98906.50;1884747;75;28270;-49
2023/04/26 13:10:02;;;;;;;0.45;0.45;;;;;;;23.79;33.68;98902.95;1867684;76;28199;-52
2023/04/26 13:12:52;;;;;;;0.80;0.62;;;;;;;23.80;33.67;98907.37;1867429;76;28180;-51
2023/04/26 13:15:40;;;;;;;0.93;0.62;;;;;;;23.81;33.63;98900.24;1867342;76;28129;-49
2023/04/26 13:18:28;;;;;;;0.65;0.65;;;;;;;23.81;33.64;98904.36;1871016;75;28152;-52
2023/04/26 13:21:16;;;;;;;0.50;0.50;;;;;;;23.80;33.63;98900.52;1896016;75;28056;-48